createdAt,value
2022-10-11T00:01:42.393Z,100379.50
2022-10-11T00:04:45.648Z,100382.06
2022-10-11T00:07:48.896Z,100384.38
2022-10-11T00:10:59.803Z,100378.00
2022-10-11T00:14:03.023Z,100379.34
2022-10-11T00:17:08.784Z,100372.53
2022-10-11T00:20:13.423Z,100373.19
2022-10-11T00:23:16.998Z,100376.06
2022-10-11T00:26:20.326Z,100374.84
2022-10-11T00:29:23.599Z,100383.75
2022-10-11T00:32:28.705Z,100371.59
2022-10-11T00:35:31.967Z,100375.31
2022-10-11T00:38:35.306Z,100370.56
2022-10-11T00:41:38.543Z,100357.56
2022-10-11T00:44:44.481Z,100357.06
2022-10-11T00:47:49.112Z,100357.56
2022-10-11T00:50:52.389Z,100356.56
2022-10-11T00:53:56.049Z,100355.41
2022-10-11T00:57:04.670Z,100349.50
2022-10-11T01:00:10.580Z,100347.16
2022-10-11T01:03:15.761Z,100342.25
2022-10-11T01:06:19.119Z,100340.41
2022-10-11T01:09:23.615Z,100341.91
2022-10-11T01:12:30.724Z,100345.38
2022-10-11T01:15:39.364Z,100346.84
2022-10-11T01:18:50.984Z,100348.00
2022-10-11T01:22:02.157Z,100342.06
2022-10-11T01:25:17.924Z,100341.88
2022-10-11T01:28:36.507Z,100339.09
2022-10-11T01:31:49.264Z,100336.97
2022-10-11T01:34:59.761Z,100335.31
2022-10-11T01:38:08.629Z,100335.97
2022-10-11T01:41:17.708Z,100318.81
2022-10-11T01:44:21.902Z,100321.81
2022-10-11T01:47:27.615Z,100321.97
2022-10-11T01:50:44.419Z,100318.69
2022-10-11T01:54:15.667Z,100319.16
2022-10-11T01:57:53.314Z,100311.59
2022-10-11T02:01:03.273Z,100318.69
2022-10-11T02:04:18.671Z,100309.97
2022-10-11T02:07:26.592Z,100305.16
2022-10-11T02:10:34.266Z,100310.25
2022-10-11T02:13:41.661Z,100298.25
2022-10-11T02:16:48.408Z,100317.84
2022-10-11T02:19:56.974Z,100308.78
2022-10-11T02:23:04.795Z,100313.25
2022-10-11T02:26:09.858Z,100315.38
2022-10-11T02:29:17.063Z,100320.31
2022-10-11T02:32:22.047Z,100323.44
2022-10-11T02:35:30.880Z,100323.59
2022-10-11T02:38:39.313Z,100316.53
2022-10-11T02:41:43.963Z,100312.41
2022-10-11T02:44:53.566Z,100314.69
2022-10-11T02:47:57.844Z,100314.38
2022-10-11T02:51:04.107Z,100313.75
2022-10-11T02:54:07.609Z,100307.63
2022-10-11T02:57:10.750Z,100301.69
2022-10-11T03:00:15.625Z,100309.75
2022-10-11T03:03:18.834Z,100304.50
2022-10-11T03:06:23.451Z,100303.69
2022-10-11T03:09:26.975Z,100301.69
2022-10-11T03:12:30.127Z,100302.88
2022-10-11T03:15:33.396Z,100299.88
2022-10-11T03:18:36.749Z,100299.09
2022-10-11T03:21:41.344Z,100296.88
2022-10-11T03:24:44.609Z,100299.25
2022-10-11T03:27:47.787Z,100303.00
2022-10-11T03:30:51.348Z,100301.06
2022-10-11T03:33:54.630Z,100307.63
2022-10-11T03:36:59.242Z,100299.06
2022-10-11T03:40:03.344Z,100302.50
2022-10-11T03:43:06.558Z,100295.03
2022-10-11T03:46:09.831Z,100297.06
2022-10-11T03:49:13.043Z,100299.88
2022-10-11T03:52:17.647Z,100300.56
2022-10-11T03:55:20.827Z,100294.78
2022-10-11T03:58:25.170Z,100292.63
2022-10-11T04:01:28.448Z,100290.34
2022-10-11T04:04:31.791Z,100281.13
2022-10-11T04:07:36.501Z,100283.59
2022-10-11T04:10:40.133Z,100284.25
2022-10-11T04:13:43.386Z,100283.09
2022-10-11T04:16:46.554Z,100282.41
2022-10-11T04:19:49.830Z,100281.94
2022-10-11T04:22:54.398Z,100289.50
2022-10-11T04:25:57.566Z,100279.13
2022-10-11T04:29:00.785Z,100272.56
2022-10-11T04:32:04.110Z,100282.25
2022-10-11T04:35:08.038Z,100280.78
2022-10-11T04:38:12.632Z,100287.84
2022-10-11T04:41:16.687Z,100290.00
2022-10-11T04:44:19.906Z,100298.91
2022-10-11T04:47:23.063Z,100288.88
2022-10-11T04:50:26.275Z,100296.25
2022-10-11T04:53:35.191Z,100294.13
2022-10-11T04:56:38.307Z,100292.47
2022-10-11T04:59:44.487Z,100292.97
2022-10-11T05:02:49.933Z,100304.97
2022-10-11T05:05:54.327Z,100302.34
2022-10-11T05:08:58.933Z,100300.41
2022-10-11T05:12:02.133Z,100304.97
2022-10-11T05:15:06.375Z,100304.56
2022-10-11T05:18:09.635Z,100299.63
2022-10-11T05:21:18.076Z,100294.44
2022-10-11T05:24:22.891Z,100292.66
2022-10-11T05:27:26.141Z,100282.13
2022-10-11T05:30:29.358Z,100285.72
2022-10-11T05:33:33.007Z,100281.78
2022-10-11T05:36:36.179Z,100287.56
2022-10-11T05:39:40.734Z,100286.88
2022-10-11T05:42:43.963Z,100287.19
2022-10-11T05:45:47.553Z,100289.84
2022-10-11T05:48:50.809Z,100282.59
2022-10-11T05:51:54.032Z,100303.84
2022-10-11T05:54:58.688Z,100301.22
2022-10-11T05:58:01.926Z,100305.00
2022-10-11T06:01:05.117Z,100305.00
2022-10-11T06:04:08.473Z,100313.22
2022-10-11T06:07:11.746Z,100315.06
2022-10-11T06:10:16.395Z,100326.44
2022-10-11T06:13:19.663Z,100323.94
2022-10-11T06:16:22.887Z,100324.44
2022-10-11T06:19:26.191Z,100318.16
2022-10-11T06:22:29.456Z,100327.03
2022-10-11T06:25:35.950Z,100321.97
2022-10-11T06:28:39.486Z,100316.69
2022-10-11T06:31:42.775Z,100324.09
2022-10-11T06:34:45.991Z,100321.66
2022-10-11T06:37:49.194Z,100325.09
2022-10-11T06:40:54.118Z,100332.66
2022-10-11T06:43:58.073Z,100334.34
2022-10-11T06:47:01.304Z,100332.00
2022-10-11T06:50:06.298Z,100336.91
2022-10-11T06:53:09.773Z,100337.59
2022-10-11T06:56:14.488Z,100344.19
2022-10-11T06:59:17.678Z,100338.91
2022-10-11T07:02:20.970Z,100333.16
2022-10-11T07:05:24.237Z,100335.47
2022-10-11T07:08:27.439Z,100338.28
2022-10-11T07:11:32.183Z,100334.63
2022-10-11T07:14:35.410Z,100328.75
2022-10-11T07:17:38.711Z,100326.56
2022-10-11T07:20:41.947Z,100336.25
2022-10-11T07:23:45.178Z,100337.25
2022-10-11T07:26:49.742Z,100331.06
2022-10-11T07:29:52.970Z,100334.81
2022-10-11T07:32:56.231Z,100318.69
2022-10-11T07:35:59.988Z,100323.06
2022-10-11T07:39:06.140Z,100328.34
2022-10-11T07:42:11.050Z,100330.16
2022-10-11T07:45:14.389Z,100329.31
2022-10-11T07:48:17.631Z,100325.47
2022-10-11T07:51:22.925Z,100325.31
2022-10-11T07:54:26.411Z,100331.16
2022-10-11T07:57:31.123Z,100325.31
2022-10-11T08:00:34.386Z,100314.25
2022-10-11T08:03:38.474Z,100318.56
2022-10-11T08:06:42.474Z,100317.38
2022-10-11T08:09:45.694Z,100311.91
2022-10-11T08:12:50.308Z,100309.56
2022-10-11T08:15:53.893Z,100313.94
2022-10-11T08:18:57.430Z,100314.13
2022-10-11T08:22:00.705Z,100321.81
2022-10-11T08:25:03.967Z,100321.63
2022-10-11T08:28:09.843Z,100319.63
2022-10-11T08:31:14.973Z,100312.84
2022-10-11T08:34:18.326Z,100305.19
2022-10-11T08:37:21.595Z,100306.69
2022-10-11T08:40:26.282Z,100306.81
2022-10-11T08:43:47.324Z,100315.19
2022-10-11T08:46:59.525Z,100307.53
2022-10-11T08:50:05.393Z,100303.00
2022-10-11T08:53:17.512Z,100304.25
2022-10-11T08:56:22.305Z,100307.97
2022-10-11T08:59:34.065Z,100308.00
2022-10-11T09:03:06.302Z,100298.97
2022-10-11T09:06:16.010Z,100296.19
2022-10-11T09:09:45.108Z,100301.94
2022-10-11T09:12:56.927Z,100307.19
2022-10-11T09:16:11.136Z,100299.78
2022-10-11T09:19:38.679Z,100302.78
2022-10-11T09:22:51.475Z,100292.22
2022-10-11T09:25:59.815Z,100289.47
2022-10-11T09:29:12.923Z,100294.31
2022-10-11T09:32:21.059Z,100292.03
2022-10-11T09:35:24.689Z,100290.91
2022-10-11T09:38:40.534Z,100284.81
2022-10-11T09:41:50.540Z,100289.47
2022-10-11T09:44:55.090Z,100292.09
2022-10-11T09:48:28.713Z,100291.13
2022-10-11T09:51:32.479Z,100288.78
2022-10-11T09:54:40.075Z,100283.34
2022-10-11T09:57:43.429Z,100279.47
2022-10-11T10:01:00.212Z,100275.72
2022-10-11T10:04:09.716Z,100271.94
2022-10-11T10:07:13.896Z,100268.19
2022-10-11T10:10:29.767Z,100259.28
2022-10-11T10:13:43.379Z,100250.72
2022-10-11T10:16:46.673Z,100245.97
2022-10-11T10:19:54.647Z,100251.69
2022-10-11T10:22:58.271Z,100241.22
2022-10-11T10:26:14.163Z,100240.94
2022-10-11T10:29:20.257Z,100236.41
2022-10-11T10:32:28.248Z,100243.66
2022-10-11T10:35:36.838Z,100240.88
2022-10-11T10:38:46.519Z,100237.59
2022-10-11T10:41:53.108Z,100221.44
2022-10-11T10:44:59.581Z,100220.03
2022-10-11T10:48:19.599Z,100217.31
2022-10-11T10:51:35.541Z,100211.31
2022-10-11T10:54:45.457Z,100211.69
2022-10-11T10:58:02.462Z,100206.91
2022-10-11T11:01:14.744Z,100215.03
2022-10-11T11:04:30.051Z,100209.63
2022-10-11T11:07:44.456Z,100216.25
2022-10-11T11:10:55.163Z,100204.00
2022-10-11T11:14:04.194Z,100201.06
2022-10-11T11:17:16.932Z,100187.72
2022-10-11T11:20:29.686Z,100191.59
2022-10-11T11:23:42.532Z,100187.06
2022-10-11T11:26:52.893Z,100171.50
2022-10-11T11:30:02.368Z,100173.19
2022-10-11T11:33:19.666Z,100164.69
2022-10-11T11:36:28.913Z,100160.38
2022-10-11T11:39:37.864Z,100155.72
2022-10-11T11:42:46.407Z,100161.06
2022-10-11T11:45:54.922Z,100155.53
2022-10-11T11:49:03.064Z,100165.00
2022-10-11T11:52:08.466Z,100169.78
2022-10-11T11:55:19.949Z,100181.31
2022-10-11T11:58:35.716Z,100173.50
2022-10-11T12:01:45.997Z,100164.94
2022-10-11T12:04:50.515Z,100164.16
2022-10-11T12:07:58.156Z,100164.88
2022-10-11T12:11:04.489Z,100161.31
2022-10-11T12:14:24.813Z,100157.84
2022-10-11T12:17:28.861Z,100161.03
2022-10-11T12:20:33.701Z,100158.16
2022-10-11T12:23:44.155Z,100153.50
2022-10-11T12:26:49.693Z,100154.88
2022-10-11T12:29:52.921Z,100156.25
2022-10-11T12:33:07.177Z,100149.16
2022-10-11T12:36:33.591Z,100146.56
2022-10-11T12:39:51.911Z,100136.88
2022-10-11T12:43:12.990Z,100129.56
2022-10-11T12:46:41.464Z,100140.28
2022-10-11T12:50:02.675Z,100136.97
2022-10-11T12:53:14.028Z,100139.41
2022-10-11T12:56:27.497Z,100137.69
2022-10-11T12:59:33.127Z,100146.94
2022-10-11T13:02:42.687Z,100151.50
2022-10-11T13:05:52.454Z,100152.78
2022-10-11T13:09:01.304Z,100157.47
2022-10-11T13:12:07.625Z,100165.03
2022-10-11T13:15:18.222Z,100159.66
2022-10-11T13:18:25.276Z,100161.66
2022-10-11T13:21:32.456Z,100161.31
2022-10-11T13:24:41.201Z,100153.22
2022-10-11T13:27:45.218Z,100157.06
2022-10-11T13:30:52.717Z,100151.97
2022-10-11T13:33:59.203Z,100145.19
2022-10-11T13:37:02.556Z,100137.50
2022-10-11T13:40:06.780Z,100133.47
2022-10-11T13:43:10.164Z,100134.25
2022-10-11T13:46:21.882Z,100132.94
2022-10-11T13:49:29.283Z,100125.56
2022-10-11T13:52:32.515Z,100132.31
2022-10-11T13:55:37.709Z,100132.28
2022-10-11T13:58:47.753Z,100132.41
2022-10-11T14:01:58.803Z,100130.88
2022-10-11T14:05:02.093Z,100129.25
2022-10-11T14:08:08.989Z,100130.25
2022-10-11T14:11:14.459Z,100131.34
2022-10-11T14:14:41.130Z,100129.84
2022-10-11T14:17:46.905Z,100126.03
2022-10-11T14:20:50.117Z,100126.06
2022-10-11T14:23:54.816Z,100123.22
2022-10-11T14:26:59.222Z,100117.31
2022-10-11T14:33:27.646Z,100110.69
2022-10-11T14:36:31.735Z,100103.38
2022-10-11T14:39:35.006Z,100110.38
2022-10-11T14:42:38.247Z,100106.59
2022-10-11T14:45:41.477Z,100097.47
2022-10-11T14:49:01.209Z,100100.66
2022-10-11T14:52:06.939Z,100106.56
2022-10-11T14:55:10.127Z,100103.78
2022-10-11T14:58:15.891Z,100106.47
2022-10-11T15:01:19.315Z,100101.31
2022-10-11T15:04:26.419Z,100101.78
2022-10-11T15:07:29.615Z,100108.00
2022-10-11T15:10:36.714Z,100109.72
2022-10-11T15:13:39.914Z,100110.34
2022-10-11T15:16:43.533Z,100110.72
2022-10-11T15:19:48.166Z,100120.41
2022-10-11T15:22:51.849Z,100102.00
2022-10-11T15:25:55.068Z,100107.81
2022-10-11T15:28:59.006Z,100099.34
2022-10-11T15:32:02.155Z,100112.56
2022-10-11T15:35:07.665Z,100104.09
2022-10-11T15:38:17.449Z,100106.75
2022-10-11T15:41:21.469Z,100100.97
2022-10-11T15:44:24.782Z,100098.44
2022-10-11T15:47:28.018Z,100094.97
2022-10-11T15:50:37.539Z,100107.75
2022-10-11T15:53:40.908Z,100109.47
2022-10-11T15:56:44.348Z,100111.09
2022-10-11T15:59:47.536Z,100119.41
2022-10-11T16:02:52.578Z,100115.78
2022-10-11T16:06:01.143Z,100113.06
2022-10-11T16:09:08.066Z,100112.94
2022-10-11T16:12:11.252Z,100119.94
2022-10-11T16:15:14.756Z,100124.50
2022-10-11T16:18:21.066Z,100125.25
2022-10-11T16:21:25.653Z,100129.63
2022-10-11T16:24:28.893Z,100130.34
2022-10-11T16:27:32.236Z,100134.44
2022-10-11T16:30:36.074Z,100145.00
2022-10-11T16:33:46.290Z,100143.81
2022-10-11T16:36:53.549Z,100149.72
2022-10-11T16:40:00.002Z,100145.44
2022-10-11T16:43:07.881Z,100151.84
2022-10-11T16:46:38.915Z,100149.47
2022-10-11T16:49:44.558Z,100154.75
2022-10-11T16:52:51.346Z,100149.13
2022-10-11T16:55:57.706Z,100153.59
2022-10-11T16:59:01.288Z,100156.31
2022-10-11T17:02:15.751Z,100150.50
2022-10-11T17:05:19.537Z,100151.94
2022-10-11T17:08:27.902Z,100150.84
2022-10-11T17:11:36.772Z,100149.66
2022-10-11T17:14:51.621Z,100150.16
2022-10-11T17:18:00.636Z,100145.91
2022-10-11T17:21:05.544Z,100148.81
2022-10-11T17:24:10.473Z,100148.53
2022-10-11T17:27:14.137Z,100150.03
2022-10-11T17:30:17.607Z,100152.47
2022-10-11T17:33:23.261Z,100142.69
2022-10-11T17:36:30.670Z,100141.59
2022-10-11T17:39:35.384Z,100148.81
2022-10-11T17:42:38.625Z,100150.22
2022-10-11T17:45:41.869Z,100151.28
2022-10-11T17:48:45.633Z,100145.09
2022-10-11T17:51:48.783Z,100148.06
2022-10-11T17:54:53.451Z,100142.66
2022-10-11T17:57:56.906Z,100145.72
2022-10-11T18:01:04.055Z,100144.91
2022-10-11T18:04:10.208Z,100148.63
2022-10-11T18:07:13.416Z,100149.34
2022-10-11T18:10:18.149Z,100153.97
2022-10-11T18:13:21.299Z,100151.47
2022-10-11T18:16:28.500Z,100156.03
2022-10-11T18:19:32.102Z,100157.94
2022-10-11T18:22:35.306Z,100158.94
2022-10-11T18:25:39.926Z,100163.03
2022-10-11T18:28:44.142Z,100157.78
2022-10-11T18:31:47.380Z,100162.06
2022-10-11T18:34:51.298Z,100156.03
2022-10-11T18:38:00.030Z,100163.69
2022-10-11T18:41:09.909Z,100163.13
2022-10-11T18:44:15.284Z,100170.97
2022-10-11T18:47:18.776Z,100164.66
2022-10-11T18:50:22.027Z,100171.22
2022-10-11T18:53:25.367Z,100170.44
2022-10-11T18:56:32.407Z,100173.81
2022-10-11T18:59:35.808Z,100165.28
2022-10-11T19:02:38.988Z,100175.69
2022-10-11T19:05:42.233Z,100172.78
2022-10-11T19:08:45.577Z,100167.03
2022-10-11T19:11:50.741Z,100167.50
2022-10-11T19:14:54.837Z,100160.41
2022-10-11T19:17:58.074Z,100162.97
2022-10-11T19:21:05.601Z,100163.81
2022-10-11T19:24:09.762Z,100163.00
2022-10-11T19:27:14.386Z,100155.78
2022-10-11T19:30:17.766Z,100164.00
2022-10-11T19:33:20.928Z,100164.00
2022-10-11T19:36:24.251Z,100170.19
2022-10-11T19:39:27.494Z,100160.13
2022-10-11T19:42:32.306Z,100163.25
2022-10-11T19:45:36.565Z,100162.59
2022-10-11T19:48:40.759Z,100167.44
2022-10-11T19:51:43.974Z,100159.91
2022-10-11T19:54:47.208Z,100164.72
2022-10-11T19:57:51.894Z,100165.41
2022-10-11T20:01:01.446Z,100165.78
2022-10-11T20:04:06.791Z,100172.63
2022-10-11T20:07:10.040Z,100175.81
2022-10-11T20:10:13.307Z,100172.06
2022-10-11T20:13:17.912Z,100177.97
2022-10-11T20:16:23.109Z,100176.69
2022-10-11T20:19:30.637Z,100177.03
2022-10-11T20:22:35.354Z,100179.66
2022-10-11T20:25:38.706Z,100179.09
2022-10-11T20:28:43.986Z,100186.03
2022-10-11T20:31:47.450Z,100184.81
2022-10-11T20:34:50.619Z,100177.91
2022-10-11T20:37:54.432Z,100177.09
2022-10-11T20:40:58.421Z,100179.72
2022-10-11T20:44:04.009Z,100176.06
2022-10-11T20:47:07.159Z,100188.38
2022-10-11T20:50:10.808Z,100176.16
2022-10-11T20:53:16.319Z,100179.34
2022-10-11T20:56:22.466Z,100183.78
2022-10-11T20:59:27.497Z,100188.06
2022-10-11T21:02:31.010Z,100188.53
2022-10-11T21:05:34.494Z,100190.56
2022-10-11T21:08:38.976Z,100191.16
2022-10-11T21:11:42.111Z,100185.31
2022-10-11T21:14:46.758Z,100193.06
2022-10-11T21:17:50.583Z,100191.00
2022-10-11T21:20:53.837Z,100191.16
2022-10-11T21:23:58.069Z,100193.28
2022-10-11T21:27:01.296Z,100194.34
2022-10-11T21:30:06.477Z,100188.47
2022-10-11T21:33:09.673Z,100193.88
2022-10-11T21:36:14.486Z,100201.84
2022-10-11T21:39:17.729Z,100198.72
2022-10-11T21:42:22.262Z,100201.25
2022-10-11T21:45:28.446Z,100200.53
2022-10-11T21:48:31.674Z,100194.84
2022-10-11T21:51:35.721Z,100201.38
2022-10-11T21:54:39.106Z,100194.31
2022-10-11T21:57:42.924Z,100190.25
2022-10-11T22:00:49.199Z,100192.69
2022-10-11T22:03:54.268Z,100192.69
2022-10-11T22:06:57.403Z,100184.34
2022-10-11T22:10:00.637Z,100191.91
2022-10-11T22:13:04.169Z,100199.09
2022-10-11T22:16:11.164Z,100189.41
2022-10-11T22:19:14.359Z,100185.00
2022-10-11T22:22:17.588Z,100185.69
2022-10-11T22:25:21.105Z,100196.03
2022-10-11T22:28:24.415Z,100205.16
2022-10-11T22:31:29.577Z,100193.00
2022-10-11T22:34:33.364Z,100194.53
2022-10-11T22:37:36.937Z,100195.75
2022-10-11T22:40:41.115Z,100199.63
2022-10-11T22:43:44.289Z,100196.13
2022-10-11T22:46:48.923Z,100198.69
2022-10-11T22:49:52.459Z,100205.66
2022-10-11T22:52:55.640Z,100198.00
2022-10-11T22:55:58.928Z,100201.94
2022-10-11T22:59:02.180Z,100203.94
2022-10-11T23:02:06.784Z,100199.34
2022-10-11T23:05:10.237Z,100200.09
2022-10-11T23:08:13.491Z,100203.38
2022-10-11T23:11:16.698Z,100208.78
2022-10-11T23:14:19.923Z,100199.88
2022-10-11T23:17:24.547Z,100209.13
2022-10-11T23:20:27.861Z,100213.97
2022-10-11T23:23:31.099Z,100207.81
2022-10-11T23:26:34.237Z,100206.53
2022-10-11T23:29:40.152Z,100214.06
2022-10-11T23:32:44.779Z,100213.44
2022-10-11T23:35:47.970Z,100210.44
2022-10-11T23:38:53.634Z,100217.03
2022-10-11T23:41:57.000Z,100212.72
2022-10-11T23:45:00.244Z,100217.31
2022-10-11T23:48:05.131Z,100215.09
2022-10-11T23:51:08.905Z,100213.34
2022-10-11T23:54:12.268Z,100209.00
2022-10-11T23:57:16.754Z,100203.38
